Time;durP1;ratioP1;P1;durP2;ratioP2;P2;SDS_P1;SDS_P2;PMS_P1;PMS_P2;Temp;Humidity;BMP_temperature;BMP_pressure;BME280_temperature;BME280_humidity;BME280_pressure;Samples;Min_cycle;Max_cycle;Signal;HPM_P1;HPM_P2
2022/07/18 00:00:05;;;;;;;2.80;2.60;;;23.90;53.00;;;;;;4990140;28;20406;-65
2022/07/18 00:02:32;;;;;;;2.97;2.70;;;23.90;53.00;;;;;;4990774;28;20405;-66
2022/07/18 00:04:59;;;;;;;2.78;2.58;;;23.90;53.10;;;;;;4990208;28;20403;-67
2022/07/18 00:07:25;;;;;;;3.42;2.63;;;23.90;53.00;;;;;;4990574;28;20437;-66
2022/07/18 00:09:51;;;;;;;2.92;2.72;;;23.90;53.10;;;;;;4989910;28;20451;-65
2022/07/18 00:12:19;;;;;;;2.90;2.65;;;23.90;53.10;;;;;;4988367;28;20757;-65
2022/07/18 00:14:46;;;;;;;2.65;2.45;;;23.90;53.10;;;;;;4990997;28;20408;-69
2022/07/18 00:17:13;;;;;;;3.35;2.50;;;23.90;53.20;;;;;;4989294;28;20407;-70
2022/07/18 00:19:40;;;;;;;3.00;2.70;;;23.90;53.20;;;;;;4990714;28;20426;-69
2022/07/18 00:22:06;;;;;;;3.00;2.70;;;23.90;53.20;;;;;;4989610;28;20765;-66
2022/07/18 00:24:32;;;;;;;3.05;2.75;;;23.90;53.20;;;;;;4989433;28;20410;-66
2022/07/18 00:27:02;;;;;;;3.05;2.75;;;23.90;53.20;;;;;;4990870;28;20406;-70
2022/07/18 00:29:29;;;;;;;2.92;2.63;;;23.90;53.20;;;;;;4973395;28;20422;-65
2022/07/18 00:31:57;;;;;;;4.00;2.70;;;23.90;53.30;;;;;;4989411;28;20917;-65
2022/07/18 00:34:24;;;;;;;2.92;2.67;;;23.90;53.20;;;;;;4990804;28;20397;-69
2022/07/18 00:36:50;;;;;;;2.63;2.42;;;23.90;53.30;;;;;;4990785;28;20766;-66
2022/07/18 00:39:16;;;;;;;2.70;2.50;;;23.90;53.30;;;;;;4990019;28;20393;-65
2022/07/18 00:41:47;;;;;;;2.60;2.40;;;23.90;53.30;;;;;;4992084;28;20461;-65
2022/07/18 00:44:20;;;;;;;2.97;2.75;;;23.90;53.20;;;;;;4991980;28;20449;-65
2022/07/18 00:46:53;;;;;;;3.50;2.78;;;23.80;53.20;;;;;;4990641;28;20449;-65
2022/07/18 00:49:21;;;;;;;3.05;2.80;;;23.80;53.20;;;;;;4973720;28;20407;-65
2022/07/18 00:51:50;;;;;;;2.90;2.70;;;23.90;53.30;;;;;;4990990;28;20421;-68
2022/07/18 00:54:17;;;;;;;3.17;2.80;;;23.90;53.30;;;;;;4990762;28;20399;-65
2022/07/18 00:56:44;;;;;;;3.10;2.80;;;23.90;53.30;;;;;;4990540;28;20394;-69
2022/07/18 00:59:12;;;;;;;3.20;2.70;;;23.90;53.30;;;;;;4990033;28;20884;-65
2022/07/18 01:01:47;;;;;;;2.97;2.67;;;23.90;53.40;;;;;;4990792;28;21214;-65
2022/07/18 01:04:22;;;;;;;4.00;2.70;;;23.90;53.40;;;;;;4988788;28;20873;-68
2022/07/18 01:06:50;;;;;;;3.00;2.70;;;23.80;53.30;;;;;;4987804;28;20884;-65
2022/07/18 01:09:17;;;;;;;3.00;2.70;;;23.90;53.50;;;;;;4988737;28;20406;-69
2022/07/18 01:11:45;;;;;;;2.60;2.40;;;23.90;53.40;;;;;;4990362;28;20418;-65
2022/07/18 01:14:13;;;;;;;3.20;2.60;;;23.80;53.30;;;;;;4989045;28;20417;-66
2022/07/18 01:16:39;;;;;;;3.00;2.70;;;23.90;53.40;;;;;;4989168;28;20398;-67
2022/07/18 01:19:05;;;;;;;3.83;2.60;;;23.80;53.30;;;;;;4990243;28;20482;-65
2022/07/18 01:21:31;;;;;;;2.92;2.63;;;23.90;53.40;;;;;;4990113;28;20399;-66
2022/07/18 01:23:57;;;;;;;3.05;2.75;;;23.90;53.40;;;;;;4989250;28;20407;-70
2022/07/18 01:26:29;;;;;;;2.90;2.70;;;23.80;53.30;;;;;;4990083;28;20481;-65
2022/07/18 01:28:55;;;;;;;2.90;2.70;;;23.80;53.40;;;;;;4990435;28;20426;-65
2022/07/18 01:31:24;;;;;;;3.25;2.95;;;23.80;53.40;;;;;;4988852;28;20450;-65
2022/07/18 01:33:53;;;;;;;2.80;2.60;;;23.80;53.30;;;;;;4990017;28;20391;-64
2022/07/18 01:36:19;;;;;;;2.97;2.70;;;23.80;53.40;;;;;;4990841;28;20421;-66
2022/07/18 01:38:44;;;;;;;2.80;2.60;;;23.80;53.40;;;;;;4989542;28;20900;-64
2022/07/18 01:41:10;;;;;;;2.93;2.63;;;23.80;53.30;;;;;;4991012;28;20387;-65
2022/07/18 01:43:40;;;;;;;2.90;2.47;;;23.80;53.40;;;;;;4989618;28;20426;-65
2022/07/18 01:46:06;;;;;;;2.90;2.63;;;23.80;53.40;;;;;;4987476;28;20485;-66
2022/07/18 01:48:31;;;;;;;2.90;2.65;;;23.80;53.40;;;;;;4989898;28;20826;-65
2022/07/18 01:50:57;;;;;;;3.30;3.00;;;23.80;53.50;;;;;;4989608;28;20418;-66
2022/07/18 01:53:24;;;;;;;2.72;2.53;;;23.80;53.30;;;;;;4990315;28;20445;-65
2022/07/18 01:55:50;;;;;;;2.70;2.50;;;23.80;53.50;;;;;;4991426;28;20485;-65
2022/07/18 01:58:15;;;;;;;2.80;2.60;;;23.80;53.40;;;;;;4991025;28;20533;-66
2022/07/18 02:00:41;;;;;;;2.73;2.53;;;23.80;53.40;;;;;;4993106;28;21019;-70
2022/07/18 02:03:07;;;;;;;3.05;2.78;;;23.80;53.40;;;;;;4994247;28;20390;-65
2022/07/18 02:05:32;;;;;;;3.00;2.60;;;23.80;53.40;;;;;;4994550;28;21337;-65
2022/07/18 02:08:01;;;;;;;3.20;2.90;;;23.80;53.40;;;;;;4994857;28;20422;-65
2022/07/18 02:10:27;;;;;;;2.67;2.47;;;23.80;53.40;;;;;;4994376;28;20421;-65
2022/07/18 02:12:55;;;;;;;2.63;2.40;;;23.80;53.40;;;;;;4994468;28;20445;-65
2022/07/18 02:15:21;;;;;;;2.97;2.78;;;23.80;53.60;;;;;;4994026;28;20390;-64
2022/07/18 02:17:47;;;;;;;3.08;2.78;;;23.80;53.60;;;;;;4994619;28;20804;-64
2022/07/18 02:20:14;;;;;;;3.30;3.00;;;23.80;53.70;;;;;;4993381;28;20421;-64
2022/07/18 02:22:43;;;;;;;3.30;3.00;;;23.80;53.90;;;;;;4994522;28;20765;-64
2022/07/18 02:25:10;;;;;;;3.10;2.90;;;23.80;53.90;;;;;;4992965;28;20478;-65
2022/07/18 02:27:37;;;;;;;3.05;2.75;;;23.80;54.00;;;;;;4992641;28;20422;-64
2022/07/18 02:30:05;;;;;;;2.95;2.75;;;23.80;53.90;;;;;;4993139;28;21007;-65
2022/07/18 02:32:36;;;;;;;2.80;2.50;;;23.80;53.90;;;;;;4992959;28;20789;-65
2022/07/18 02:35:04;;;;;;;2.90;2.65;;;23.70;53.90;;;;;;4992874;28;20922;-64
2022/07/18 02:37:32;;;;;;;2.83;2.60;;;23.80;54.10;;;;;;4993507;28;20403;-64
2022/07/18 02:39:58;;;;;;;2.92;2.60;;;23.80;54.10;;;;;;4994139;28;20430;-65
2022/07/18 02:42:24;;;;;;;2.80;2.60;;;23.80;54.00;;;;;;4994377;28;20433;-65
2022/07/18 02:44:53;;;;;;;2.88;2.60;;;23.80;54.00;;;;;;4994122;28;20902;-64
2022/07/18 02:47:19;;;;;;;2.95;2.70;;;23.80;54.10;;;;;;4992208;28;20407;-65
2022/07/18 02:49:46;;;;;;;3.20;2.90;;;23.80;54.10;;;;;;4994106;28;20410;-65
2022/07/18 02:52:13;;;;;;;3.10;2.80;;;23.70;54.00;;;;;;4992690;28;20406;-65
2022/07/18 02:54:41;;;;;;;3.10;2.70;;;23.70;54.10;;;;;;4976773;28;20990;-65
2022/07/18 02:57:09;;;;;;;3.17;2.58;;;23.70;54.10;;;;;;4975940;28;20500;-65
2022/07/18 02:59:36;;;;;;;4.00;2.90;;;23.70;54.10;;;;;;4993132;28;20399;-65
2022/07/18 03:02:03;;;;;;;2.65;2.45;;;23.70;54.00;;;;;;4993746;28;20546;-64
2022/07/18 03:04:32;;;;;;;2.88;2.67;;;23.70;54.10;;;;;;4993641;28;20765;-64
2022/07/18 03:06:58;;;;;;;3.08;2.65;;;23.70;54.00;;;;;;4992168;28;20412;-65
2022/07/18 03:09:27;;;;;;;3.50;2.80;;;23.70;54.40;;;;;;4991364;28;20397;-65
2022/07/18 03:11:56;;;;;;;3.28;2.50;;;23.70;54.40;;;;;;4992349;28;20403;-65
2022/07/18 03:14:22;;;;;;;4.72;3.00;;;23.70;54.40;;;;;;4975975;28;20413;-65
2022/07/18 03:16:48;;;;;;;7.82;3.00;;;23.80;55.60;;;;;;4993632;28;20489;-65
2022/07/18 03:19:14;;;;;;;6.20;2.80;;;23.80;55.70;;;;;;4993163;28;20433;-65
2022/07/18 03:21:42;;;;;;;5.55;3.28;;;23.80;55.60;;;;;;4994021;28;20391;-65
2022/07/18 03:24:10;;;;;;;4.77;2.80;;;23.90;56.80;;;;;;4993452;28;20453;-65
2022/07/18 03:26:38;;;;;;;7.90;3.30;;;23.90;56.10;;;;;;4994853;28;20446;-65
2022/07/18 03:29:06;;;;;;;4.72;3.20;;;23.90;56.00;;;;;;4991865;28;20413;-64
2022/07/18 03:31:32;;;;;;;5.05;3.40;;;23.90;54.80;;;;;;4991153;28;20462;-64
2022/07/18 03:33:58;;;;;;;5.25;3.50;;;23.80;54.40;;;;;;4993116;28;20411;-65
2022/07/18 03:36:28;;;;;;;4.43;3.80;;;23.80;54.00;;;;;;4992836;28;20474;-64
2022/07/18 03:38:54;;;;;;;5.32;3.78;;;23.80;53.70;;;;;;4992804;28;20414;-66
2022/07/18 03:41:21;;;;;;;4.87;3.70;;;23.70;52.60;;;;;;4991769;28;20769;-65
2022/07/18 03:43:48;;;;;;;6.70;3.85;;;23.70;53.50;;;;;;4992618;28;20426;-67
2022/07/18 03:46:14;;;;;;;4.18;3.70;;;23.70;53.10;;;;;;4992278;28;20915;-65
2022/07/18 03:48:41;;;;;;;5.93;3.90;;;23.70;52.90;;;;;;4993019;28;20402;-65
2022/07/18 03:51:07;;;;;;;5.80;3.80;;;23.70;52.90;;;;;;4990689;28;20487;-65
2022/07/18 03:53:35;;;;;;;5.40;3.83;;;23.80;52.80;;;;;;4990642;28;20821;-65
2022/07/18 03:56:01;;;;;;;4.50;3.00;;;23.80;52.60;;;;;;4990718;28;20461;-66
2022/07/18 03:58:28;;;;;;;6.15;3.30;;;23.70;51.40;;;;;;4975148;28;20896;-65
2022/07/18 04:00:54;;;;;;;4.80;3.30;;;23.70;51.40;;;;;;4992678;28;20449;-65
2022/07/18 04:03:20;;;;;;;5.65;3.58;;;23.70;50.70;;;;;;4990938;28;20448;-65
2022/07/18 04:05:47;;;;;;;8.27;3.70;;;23.70;50.70;;;;;;4992589;28;20399;-64
2022/07/18 04:08:12;;;;;;;8.38;3.67;;;23.60;50.00;;;;;;4991174;28;20394;-65
2022/07/18 04:10:40;;;;;;;8.63;3.70;;;23.60;50.50;;;;;;4992484;28;20773;-64
2022/07/18 04:13:07;;;;;;;10.85;4.00;;;23.60;51.10;;;;;;4991733;28;20382;-64
2022/07/18 04:15:33;;;;;;;8.52;3.90;;;23.60;51.10;;;;;;4990129;28;20500;-64
2022/07/18 04:18:02;;;;;;;11.98;4.03;;;23.60;51.30;;;;;;4992220;28;20401;-64
2022/07/18 04:20:31;;;;;;;8.30;3.92;;;23.50;50.90;;;;;;4992282;28;20410;-65
2022/07/18 04:23:01;;;;;;;9.07;4.00;;;23.50;51.10;;;;;;4991717;28;20401;-65
2022/07/18 04:25:29;;;;;;;8.95;3.72;;;23.50;51.20;;;;;;4990120;28;20412;-64
2022/07/18 04:27:56;;;;;;;7.18;3.50;;;23.50;51.20;;;;;;4992158;28;20386;-64
2022/07/18 04:30:25;;;;;;;8.93;3.83;;;23.50;51.30;;;;;;4992097;28;20773;-64
2022/07/18 04:32:54;;;;;;;7.65;3.60;;;23.50;51.50;;;;;;4990774;28;20398;-64
2022/07/18 04:35:22;;;;;;;5.72;3.50;;;23.50;51.60;;;;;;4991780;28;20494;-64
2022/07/18 04:37:49;;;;;;;6.70;3.40;;;23.50;51.60;;;;;;4991880;28;20390;-64
2022/07/18 04:40:20;;;;;;;8.48;3.67;;;23.50;51.60;;;;;;4991989;28;20887;-64
2022/07/18 04:42:47;;;;;;;6.30;4.07;;;23.50;51.70;;;;;;4992044;28;20438;-64
2022/07/18 04:45:15;;;;;;;6.28;3.60;;;23.50;51.80;;;;;;4990551;28;20445;-64
2022/07/18 04:47:42;;;;;;;4.65;3.50;;;23.50;51.80;;;;;;4991634;28;20418;-64
2022/07/18 04:50:08;;;;;;;6.05;3.40;;;23.50;51.90;;;;;;4990649;28;20414;-65
2022/07/18 04:52:43;;;;;;;6.13;3.50;;;23.50;52.00;;;;;;4990760;28;20406;-64
2022/07/18 04:55:11;;;;;;;5.72;3.33;;;23.50;52.10;;;;;;4990700;28;20599;-64
2022/07/18 04:57:39;;;;;;;4.68;3.33;;;23.50;52.10;;;;;;4991451;28;20425;-64
2022/07/18 05:00:13;;;;;;;6.50;3.60;;;23.50;52.70;;;;;;4991932;28;20474;-64
2022/07/18 05:02:52;;;;;;;5.90;3.60;;;23.50;52.20;;;;;;4990761;28;20410;-64
2022/07/18 05:05:19;;;;;;;4.60;3.67;;;23.50;52.30;;;;;;4990147;28;20829;-64
2022/07/18 05:07:46;;;;;;;3.95;3.10;;;23.50;52.30;;;;;;4990018;28;20399;-64
2022/07/18 05:10:15;;;;;;;3.50;3.15;;;23.50;52.40;;;;;;4991681;28;20461;-65
2022/07/18 05:12:44;;;;;;;4.03;3.13;;;23.50;52.40;;;;;;4991728;28;20422;-64
2022/07/18 05:15:12;;;;;;;4.00;3.30;;;23.50;52.50;;;;;;4991669;28;20430;-65
2022/07/18 05:17:39;;;;;;;3.92;3.05;;;23.50;52.50;;;;;;4974177;28;20420;-64
2022/07/18 05:20:10;;;;;;;3.47;3.17;;;23.50;52.60;;;;;;4989569;28;20417;-65
2022/07/18 05:22:37;;;;;;;3.63;2.97;;;23.50;52.60;;;;;;4988727;28;20406;-65
2022/07/18 05:25:05;;;;;;;7.88;3.42;;;23.50;52.60;;;;;;4981460;28;20407;-65
2022/07/18 05:27:32;;;;;;;4.50;3.00;;;23.50;53.50;;;;;;4969799;28;20428;-65
2022/07/18 05:30:03;;;;;;;5.28;3.35;;;23.60;53.80;;;;;;4971780;28;20428;-65
2022/07/18 05:32:30;;;;;;;4.28;3.30;;;23.60;54.90;;;;;;4981135;28;20387;-64
2022/07/18 05:34:57;;;;;;;5.88;3.42;;;23.70;54.80;;;;;;4988969;28;20449;-64
2022/07/18 05:37:23;;;;;;;7.50;3.42;;;23.70;54.40;;;;;;4988819;28;20390;-65
2022/07/18 05:39:51;;;;;;;4.68;3.30;;;23.70;55.10;;;;;;4993663;28;20414;-65
2022/07/18 05:42:18;;;;;;;6.68;3.33;;;23.70;54.90;;;;;;4994904;28;20469;-65
2022/07/18 05:44:45;;;;;;;5.40;3.35;;;23.70;54.70;;;;;;4991192;28;20453;-66
2022/07/18 05:47:11;;;;;;;4.60;3.20;;;23.70;54.70;;;;;;4994672;28;20386;-65
2022/07/18 05:49:38;;;;;;;6.85;3.40;;;23.70;54.60;;;;;;4993214;28;20430;-65
2022/07/18 05:52:08;;;;;;;5.10;3.00;;;23.70;54.70;;;;;;4992133;28;20402;-65
2022/07/18 05:54:34;;;;;;;4.73;3.40;;;23.80;54.50;;;;;;4993803;28;20399;-64
2022/07/18 05:57:02;;;;;;;5.72;3.33;;;23.80;54.80;;;;;;4994788;28;20398;-64
2022/07/18 05:59:28;;;;;;;4.25;3.40;;;23.80;54.60;;;;;;4994150;28;20383;-65
2022/07/18 06:01:54;;;;;;;4.75;3.00;;;23.80;54.70;;;;;;4989269;28;20416;-65
2022/07/18 06:04:20;;;;;;;5.72;3.45;;;23.80;53.80;;;;;;4993590;28;20390;-64
2022/07/18 06:06:48;;;;;;;6.40;3.03;;;23.80;53.80;;;;;;4994139;28;20410;-65
2022/07/18 06:09:14;;;;;;;4.00;3.00;;;23.70;53.60;;;;;;5009608;28;20398;-65
2022/07/18 06:11:39;;;;;;;6.35;3.10;;;23.70;53.70;;;;;;4993859;28;20783;-65
2022/07/18 06:14:05;;;;;;;4.15;3.03;;;23.70;53.70;;;;;;4994381;28;20789;-65
2022/07/18 06:16:31;;;;;;;3.93;2.97;;;23.70;53.90;;;;;;5009512;28;20916;-65
2022/07/18 06:18:57;;;;;;;4.40;3.10;;;23.70;53.70;;;;;;5009502;28;20468;-65
2022/07/18 06:21:23;;;;;;;3.42;3.10;;;23.70;53.70;;;;;;4994020;28;20481;-65
2022/07/18 06:23:49;;;;;;;4.17;2.93;;;23.70;53.70;;;;;;4992638;28;20486;-65
2022/07/18 06:26:14;;;;;;;3.55;2.70;;;23.70;53.80;;;;;;4993821;28;20901;-65
2022/07/18 06:28:40;;;;;;;3.60;3.00;;;23.70;53.50;;;;;;4994123;28;20399;-65
2022/07/18 06:31:06;;;;;;;3.42;3.10;;;23.70;53.50;;;;;;4994084;28;20780;-65
2022/07/18 06:33:32;;;;;;;3.88;3.03;;;23.70;53.60;;;;;;4993706;28;20485;-65
2022/07/18 06:35:58;;;;;;;4.75;3.20;;;23.80;53.60;;;;;;4992922;28;20414;-64
2022/07/18 06:38:23;;;;;;;5.63;2.97;;;23.80;53.10;;;;;;4992806;28;20421;-65
2022/07/18 06:40:49;;;;;;;5.90;3.00;;;23.70;53.40;;;;;;4994114;28;20514;-64
2022/07/18 06:43:19;;;;;;;4.13;3.00;;;23.80;53.60;;;;;;4993940;28;20804;-65
2022/07/18 06:45:46;;;;;;;5.63;2.90;;;23.80;53.60;;;;;;4993271;28;20422;-65
2022/07/18 06:48:13;;;;;;;3.35;3.00;;;23.70;54.20;;;;;;4993891;28;20387;-65
2022/07/18 06:50:40;;;;;;;3.97;3.10;;;23.80;53.60;;;;;;4993782;28;20971;-65
2022/07/18 06:53:05;;;;;;;3.42;3.10;;;23.80;54.30;;;;;;4993781;28;20487;-65
2022/07/18 06:55:31;;;;;;;3.90;3.00;;;23.80;53.60;;;;;;4993335;28;20777;-65
2022/07/18 06:57:57;;;;;;;4.00;3.00;;;23.70;53.80;;;;;;4992455;28;20456;-65
2022/07/18 07:00:22;;;;;;;4.97;3.10;;;23.80;54.00;;;;;;4993304;28;20391;-65
2022/07/18 07:02:49;;;;;;;7.23;3.10;;;23.80;55.20;;;;;;4993574;28;20397;-64
2022/07/18 07:05:17;;;;;;;4.95;3.08;;;23.80;55.30;;;;;;4993702;28;20402;-65
2022/07/18 07:07:44;;;;;;;5.43;2.95;;;23.90;55.30;;;;;;4993356;28;20549;-65
2022/07/18 07:10:11;;;;;;;5.03;2.95;;;23.90;55.00;;;;;;4993366;28;20448;-65
2022/07/18 07:12:46;;;;;;;3.25;2.95;;;23.90;55.10;;;;;;4993443;28;20564;-66
2022/07/18 07:15:12;;;;;;;4.95;3.08;;;23.90;55.10;;;;;;4992968;28;20402;-65
2022/07/18 07:17:38;;;;;;;4.15;2.92;;;23.90;54.50;;;;;;4992875;28;20450;-65
2022/07/18 07:20:06;;;;;;;4.22;2.70;;;23.90;54.40;;;;;;4992407;28;20895;-65
2022/07/18 07:22:32;;;;;;;3.50;2.88;;;23.80;54.20;;;;;;4992011;28;20402;-66
2022/07/18 07:24:58;;;;;;;3.38;2.83;;;23.80;54.20;;;;;;4993125;28;20394;-65
2022/07/18 07:27:23;;;;;;;5.30;3.10;;;23.80;54.00;;;;;;4991774;28;20437;-65
2022/07/18 07:29:49;;;;;;;4.70;2.97;;;23.80;54.10;;;;;;4992876;28;20411;-65
2022/07/18 07:32:15;;;;;;;4.70;2.80;;;23.80;54.00;;;;;;4994313;28;20422;-65
2022/07/18 07:34:40;;;;;;;4.03;2.97;;;23.80;54.00;;;;;;4993156;28;20394;-65
2022/07/18 07:37:06;;;;;;;3.90;3.22;;;23.80;54.10;;;;;;4993058;28;20412;-65
2022/07/18 07:39:31;;;;;;;3.63;3.20;;;23.80;54.10;;;;;;4992672;28;20903;-65
2022/07/18 07:41:57;;;;;;;3.03;2.73;;;23.80;54.10;;;;;;4992956;28;20893;-65
2022/07/18 07:44:23;;;;;;;3.55;2.80;;;23.80;54.00;;;;;;4992653;28;20397;-64
2022/07/18 07:46:49;;;;;;;3.50;2.97;;;23.80;54.00;;;;;;4992771;28;20432;-65
2022/07/18 07:49:15;;;;;;;3.30;3.00;;;23.80;54.60;;;;;;4992800;28;20440;-65
2022/07/18 07:51:40;;;;;;;3.45;3.15;;;23.80;54.10;;;;;;4992248;28;20431;-65
2022/07/18 07:54:06;;;;;;;3.50;3.20;;;23.80;54.10;;;;;;4992429;28;20386;-64
2022/07/18 07:56:32;;;;;;;3.17;2.87;;;23.80;54.10;;;;;;4992859;28;20877;-65
2022/07/18 07:58:57;;;;;;;3.70;3.17;;;23.80;54.10;;;;;;4992109;28;20726;-65
2022/07/18 08:01:23;;;;;;;3.57;3.27;;;23.80;54.10;;;;;;4992565;28;20773;-65
2022/07/18 08:03:50;;;;;;;3.13;2.83;;;23.80;54.10;;;;;;4992201;28;20398;-65
2022/07/18 08:06:16;;;;;;;3.38;2.88;;;23.80;54.10;;;;;;4992374;28;20842;-65
2022/07/18 08:08:41;;;;;;;3.20;2.90;;;23.80;54.20;;;;;;4992571;28;20448;-65
2022/07/18 08:11:07;;;;;;;3.10;2.85;;;23.80;54.10;;;;;;4992395;28;20426;-65
2022/07/18 08:13:33;;;;;;;3.70;3.00;;;23.80;54.10;;;;;;4991549;28;20386;-65
2022/07/18 08:15:58;;;;;;;3.72;3.00;;;23.80;54.00;;;;;;4992263;28;20813;-65
2022/07/18 08:18:24;;;;;;;2.90;2.60;;;23.80;54.10;;;;;;4992130;28;20471;-65
2022/07/18 08:20:50;;;;;;;3.47;2.70;;;23.80;54.00;;;;;;4993213;28;20772;-64
2022/07/18 08:23:18;;;;;;;3.47;2.63;;;23.80;54.10;;;;;;4992682;28;20730;-65
2022/07/18 08:25:45;;;;;;;3.37;3.07;;;23.80;54.00;;;;;;4990258;28;20421;-64
2022/07/18 08:28:12;;;;;;;3.35;2.90;;;23.90;54.10;;;;;;4992155;28;20872;-64
2022/07/18 08:30:38;;;;;;;4.13;2.83;;;23.80;54.00;;;;;;4992144;28;20429;-65
2022/07/18 08:33:05;;;;;;;3.30;3.00;;;23.80;54.10;;;;;;4992336;28;20399;-64
2022/07/18 08:35:34;;;;;;;3.30;2.90;;;23.80;54.10;;;;;;4992189;28;20845;-64
2022/07/18 08:38:01;;;;;;;2.93;2.70;;;23.80;54.00;;;;;;4992112;28;20485;-64
2022/07/18 08:40:27;;;;;;;3.28;2.97;;;23.80;54.10;;;;;;4992241;28;20896;-65
2022/07/18 08:42:55;;;;;;;3.22;2.80;;;23.80;54.10;;;;;;4992283;28;20406;-65
2022/07/18 08:45:23;;;;;;;4.43;3.00;;;23.80;54.10;;;;;;4992160;28;20390;-65
2022/07/18 08:47:49;;;;;;;9.27;3.00;;;23.90;54.50;;;;;;4991610;28;20398;-65
2022/07/18 08:50:16;;;;;;;8.70;3.15;;;23.90;54.70;;;;;;4991897;28;20430;-65
2022/07/18 08:52:42;;;;;;;6.15;3.08;;;23.90;54.50;;;;;;4990961;28;20395;-65
2022/07/18 08:55:08;;;;;;;5.93;3.33;;;23.90;54.40;;;;;;4990741;28;20409;-65
2022/07/18 08:57:34;;;;;;;5.68;3.47;;;23.90;54.30;;;;;;4991823;28;20399;-65
2022/07/18 09:00:09;;;;;;;4.10;3.30;;;23.90;54.30;;;;;;4991689;28;20417;-65
2022/07/18 09:02:35;;;;;;;4.65;3.03;;;23.90;54.20;;;;;;4986202;28;20528;-66
2022/07/18 09:05:03;;;;;;;4.05;3.40;;;23.90;54.30;;;;;;4985016;28;20418;-65
2022/07/18 09:07:34;;;;;;;5.90;3.50;;;23.90;54.20;;;;;;4984489;28;20912;-65
2022/07/18 09:10:02;;;;;;;4.45;3.30;;;23.90;54.20;;;;;;4983181;28;20407;-68
2022/07/18 09:12:31;;;;;;;5.85;3.10;;;23.90;54.80;;;;;;4978389;28;20438;-65
2022/07/18 09:15:03;;;;;;;4.27;3.10;;;23.90;54.20;;;;;;4976464;28;20472;-65
2022/07/18 09:17:29;;;;;;;4.10;3.10;;;23.90;54.20;;;;;;4976418;28;20526;-65
2022/07/18 09:20:08;;;;;;;4.80;3.25;;;23.90;54.20;;;;;;4975871;28;20948;-65
2022/07/18 09:22:36;;;;;;;4.28;3.05;;;23.90;54.30;;;;;;4974980;28;20471;-66
2022/07/18 09:25:12;;;;;;;5.00;3.50;;;23.90;54.30;;;;;;4974945;28;20559;-65
2022/07/18 09:27:41;;;;;;;4.57;3.30;;;23.90;54.30;;;;;;4975668;28;20462;-65
2022/07/18 09:30:35;;;;;;;4.73;3.23;;;23.90;54.20;;;;;;4975426;28;20407;-65
2022/07/18 09:33:03;;;;;;;3.85;3.42;;;23.90;54.80;;;;;;4976100;28;20404;-66
2022/07/18 09:35:37;;;;;;;4.30;3.20;;;23.90;54.30;;;;;;4976029;28;20392;-65
2022/07/18 09:38:09;;;;;;;3.40;2.80;;;23.90;54.20;;;;;;4974439;28;20431;-65
2022/07/18 09:40:38;;;;;;;4.45;3.33;;;23.90;54.20;;;;;;4975977;28;20472;-65
2022/07/18 09:43:07;;;;;;;3.78;3.38;;;23.90;54.20;;;;;;4975963;28;20403;-65
2022/07/18 09:45:44;;;;;;;3.58;3.28;;;23.90;54.20;;;;;;4975585;28;20400;-65
2022/07/18 09:48:12;;;;;;;3.90;3.30;;;23.90;54.30;;;;;;4975774;28;20392;-65
2022/07/18 09:50:41;;;;;;;3.58;3.28;;;23.90;54.30;;;;;;4975581;28;20755;-65
2022/07/18 09:53:09;;;;;;;3.55;3.15;;;23.90;54.20;;;;;;4975728;28;20747;-65
2022/07/18 09:55:35;;;;;;;4.78;3.17;;;23.90;54.80;;;;;;4975490;28;20404;-65
2022/07/18 09:58:06;;;;;;;3.38;3.08;;;23.90;54.20;;;;;;4975461;28;20384;-64
2022/07/18 10:00:34;;;;;;;3.30;3.00;;;23.90;54.30;;;;;;4977320;28;20440;-67
2022/07/18 10:03:01;;;;;;;3.30;3.00;;;23.90;54.20;;;;;;4988261;28;20419;-65
2022/07/18 10:05:29;;;;;;;3.60;3.10;;;23.90;54.20;;;;;;4988729;28;20456;-66
2022/07/18 10:07:56;;;;;;;3.95;3.20;;;23.90;54.30;;;;;;4984859;28;20403;-64
2022/07/18 10:10:24;;;;;;;3.80;3.30;;;23.90;54.80;;;;;;4988406;28;20445;-65
2022/07/18 10:12:54;;;;;;;3.35;3.03;;;23.90;54.30;;;;;;4994674;28;20449;-70
2022/07/18 10:15:22;;;;;;;3.53;3.22;;;23.90;54.20;;;;;;4994642;28;20398;-69
2022/07/18 10:17:48;;;;;;;4.00;3.40;;;23.90;54.20;;;;;;4994325;28;20390;-65
2022/07/18 10:20:14;;;;;;;3.20;2.90;;;23.90;54.20;;;;;;4993329;28;20449;-67
2022/07/18 10:22:44;;;;;;;3.63;2.90;;;23.90;54.20;;;;;;4993020;28;20768;-65
2022/07/18 10:25:12;;;;;;;3.08;2.85;;;23.90;54.20;;;;;;4992289;28;20398;-66
2022/07/18 10:27:49;;;;;;;3.05;2.75;;;23.90;54.20;;;;;;4994297;28;20900;-65
2022/07/18 10:30:15;;;;;;;3.30;2.80;;;23.90;54.20;;;;;;4994410;28;20839;-66
2022/07/18 10:32:42;;;;;;;3.33;2.80;;;23.90;54.20;;;;;;4994122;28;20407;-65
2022/07/18 10:35:10;;;;;;;3.28;2.80;;;23.90;54.20;;;;;;4994048;28;20916;-65
2022/07/18 10:37:37;;;;;;;3.40;2.70;;;23.90;54.80;;;;;;4991570;28;20493;-65
2022/07/18 10:40:28;;;;;;;3.10;2.80;;;23.90;54.20;;;;;;4993750;28;20518;-66
2022/07/18 10:43:30;;;;;;;2.90;2.70;;;23.90;54.10;;;;;;4993786;28;20387;-65
2022/07/18 10:45:57;;;;;;;2.70;2.50;;;23.90;54.20;;;;;;4993444;28;20394;-64
2022/07/18 10:48:32;;;;;;;2.88;2.67;;;23.90;54.30;;;;;;4994021;28;20398;-65
2022/07/18 10:51:08;;;;;;;3.15;2.72;;;23.90;54.30;;;;;;4992798;28;20418;-64
2022/07/18 10:53:55;;;;;;;3.20;2.90;;;23.90;54.30;;;;;;4994123;28;20393;-65
2022/07/18 10:56:41;;;;;;;2.90;2.60;;;23.90;54.30;;;;;;4993891;28;20873;-65
2022/07/18 10:59:21;;;;;;;3.10;2.80;;;23.90;54.20;;;;;;4993827;28;20400;-65
2022/07/18 11:01:55;;;;;;;2.90;2.60;;;23.90;54.30;;;;;;4992053;28;20489;-65
2022/07/18 11:04:34;;;;;;;2.97;2.45;;;23.90;54.20;;;;;;4992229;28;20481;-66
2022/07/18 11:07:13;;;;;;;3.08;2.70;;;23.90;54.20;;;;;;4993181;28;20383;-65
2022/07/18 11:09:42;;;;;;;3.65;2.60;;;23.90;54.20;;;;;;4991862;28;20402;-64
2022/07/18 11:12:19;;;;;;;3.63;2.50;;;23.90;54.30;;;;;;4993127;28;20437;-65
2022/07/18 11:15:11;;;;;;;2.63;2.43;;;23.90;54.20;;;;;;4993487;28;20398;-65
2022/07/18 11:17:52;;;;;;;2.88;2.60;;;24.00;54.20;;;;;;4989401;28;20398;-65
2022/07/18 11:20:26;;;;;;;3.30;2.80;;;23.90;54.20;;;;;;4981980;28;20392;-64
2022/07/18 11:22:52;;;;;;;3.65;2.70;;;24.00;54.30;;;;;;4974471;28;20397;-65
2022/07/18 11:25:20;;;;;;;4.07;2.80;;;23.90;54.30;;;;;;4991961;28;20400;-65
2022/07/18 11:27:46;;;;;;;3.23;2.80;;;23.90;54.20;;;;;;4991395;28;20920;-65
2022/07/18 11:30:19;;;;;;;3.40;2.90;;;24.00;54.20;;;;;;4992919;28;20464;-65
2022/07/18 11:32:45;;;;;;;3.40;2.60;;;24.00;54.20;;;;;;4990975;28;20418;-67
2022/07/18 11:35:13;;;;;;;3.13;2.60;;;24.00;54.20;;;;;;4992893;28;20822;-65
2022/07/18 11:37:47;;;;;;;2.83;2.60;;;24.00;54.70;;;;;;4991674;28;20406;-65
2022/07/18 11:40:15;;;;;;;3.00;2.70;;;24.00;54.20;;;;;;4993109;28;20405;-65
2022/07/18 11:42:43;;;;;;;3.00;2.70;;;24.00;54.20;;;;;;4990831;28;20432;-65
2022/07/18 11:45:15;;;;;;;3.33;2.58;;;24.00;54.20;;;;;;4987877;28;20426;-65
2022/07/18 11:47:52;;;;;;;2.90;2.60;;;24.00;54.10;;;;;;4990314;28;20430;-66
2022/07/18 11:50:40;;;;;;;2.92;2.63;;;24.00;54.10;;;;;;4989173;28;20411;-65
2022/07/18 11:53:09;;;;;;;2.95;2.50;;;24.10;54.00;;;;;;4991557;28;20896;-66
2022/07/18 11:55:38;;;;;;;3.53;2.53;;;24.00;54.00;;;;;;4991712;28;20629;-65
2022/07/18 11:58:14;;;;;;;4.45;2.72;;;24.00;53.90;;;;;;4990818;28;20402;-66
2022/07/18 12:00:41;;;;;;;3.35;2.63;;;24.10;54.10;;;;;;4991639;28;20413;-66
2022/07/18 12:03:18;;;;;;;3.80;2.90;;;24.10;53.80;;;;;;4987417;28;20406;-66
2022/07/18 12:05:52;;;;;;;3.27;2.77;;;24.00;53.70;;;;;;4991411;28;20394;-65
2022/07/18 12:08:31;;;;;;;2.92;2.60;;;24.10;53.90;;;;;;4990310;28;20410;-65
2022/07/18 12:11:11;;;;;;;2.70;2.50;;;24.00;53.90;;;;;;4990010;28;20468;-65
2022/07/18 12:13:47;;;;;;;2.90;2.60;;;24.10;53.80;;;;;;4987929;28;21208;-70
2022/07/18 12:16:34;;;;;;;2.60;2.40;;;24.10;54.00;;;;;;4990120;28;20399;-65
2022/07/18 12:19:12;;;;;;;2.80;2.60;;;24.00;53.80;;;;;;4989335;28;20382;-66
2022/07/18 12:21:53;;;;;;;3.20;2.90;;;24.10;53.90;;;;;;4988021;28;20401;-70
2022/07/18 12:24:32;;;;;;;3.85;3.00;;;24.10;54.00;;;;;;4989101;28;20752;-64
2022/07/18 12:27:21;;;;;;;2.90;2.70;;;24.10;53.80;;;;;;4988781;28;20968;-69
2022/07/18 12:30:24;;;;;;;2.80;2.60;;;24.10;53.80;;;;;;4990103;28;20984;-66
2022/07/18 12:32:56;;;;;;;2.70;2.50;;;24.10;53.80;;;;;;4971783;28;20407;-68
2022/07/18 12:35:36;;;;;;;2.58;2.38;;;24.10;53.80;;;;;;4990988;28;20418;-65
2022/07/18 12:38:08;;;;;;;3.33;2.70;;;24.10;53.90;;;;;;4989118;28;20401;-65
2022/07/18 12:40:51;;;;;;;2.60;2.40;;;24.10;53.80;;;;;;4988526;28;20434;-65
2022/07/18 12:43:33;;;;;;;2.40;2.20;;;24.10;53.90;;;;;;4991910;28;20884;-65
2022/07/18 12:46:06;;;;;;;2.90;2.60;;;24.10;53.80;;;;;;4990654;28;20943;-65
2022/07/18 12:48:36;;;;;;;2.67;2.40;;;24.10;53.70;;;;;;4992004;28;20397;-65
2022/07/18 12:51:07;;;;;;;2.60;2.40;;;24.10;53.60;;;;;;4991866;28;20441;-65
2022/07/18 12:53:41;;;;;;;2.65;2.40;;;24.10;53.80;;;;;;4990745;28;20398;-65
2022/07/18 12:56:09;;;;;;;2.40;2.20;;;24.20;53.80;;;;;;4991672;28;20461;-65